Time;durP1;ratioP1;P1;durP2;ratioP2;P2;SDS_P1;SDS_P2;PMS_P1;PMS_P2;Temp;Humidity;BMP_temperature;BMP_pressure;BME280_temperature;BME280_humidity;BME280_pressure;Samples;Min_cycle;Max_cycle;Signal;HPM_P1;HPM_P2
2024/02/14 00:00:43;;;;;;;4.30;2.20;;;;;;;;;;4985329;28;20231;-84
2024/02/14 00:03:11;;;;;;;3.50;2.10;;;;;;;;;;4982141;28;20218;-83
2024/02/14 00:05:40;;;;;;;2.70;2.20;;;;;;;;;;4985292;28;20208;-82
2024/02/14 00:08:09;;;;;;;5.17;1.90;;;;;;;;;;4967781;28;20232;-84
2024/02/14 00:10:35;;;;;;;4.67;2.40;;;;;;;;;;4968282;28;20301;-83
2024/02/14 00:13:00;;;;;;;3.60;2.00;;;;;;;;;;4981978;28;20572;-83
2024/02/14 00:15:26;;;;;;;3.80;2.13;;;;;;;;;;4984158;28;20239;-84
2024/02/14 00:17:51;;;;;;;4.10;2.20;;;;;;;;;;4982285;28;20306;-83
2024/02/14 00:20:17;;;;;;;2.80;2.00;;;;;;;;;;4997559;28;20993;-83
2024/02/14 00:22:47;;;;;;;2.87;2.30;;;;;;;;;;4996518;28;20212;-85
2024/02/14 00:25:15;;;;;;;2.57;2.03;;;;;;;;;;4981607;28;20220;-85
2024/02/14 00:27:42;;;;;;;4.17;2.43;;;;;;;;;;4985474;28;20282;-85
2024/02/14 00:30:08;;;;;;;3.10;2.20;;;;;;;;;;4983590;28;21287;-84
2024/02/14 00:32:33;;;;;;;3.80;2.40;;;;;;;;;;5001562;28;20654;-85
2024/02/14 00:35:06;;;;;;;3.33;2.27;;;;;;;;;;4987458;28;20258;-84
2024/02/14 00:37:33;;;;;;;5.67;2.40;;;;;;;;;;4988495;28;20601;-84
2024/02/14 00:40:01;;;;;;;3.67;2.17;;;;;;;;;;4982850;28;20263;-83
2024/02/14 00:42:29;;;;;;;2.67;2.03;;;;;;;;;;4982450;28;20637;-84
2024/02/14 00:44:54;;;;;;;4.30;2.33;;;;;;;;;;4993291;28;20220;-85
2024/02/14 00:47:25;;;;;;;3.03;2.30;;;;;;;;;;4999967;28;20225;-85
2024/02/14 00:49:51;;;;;;;3.93;2.40;;;;;;;;;;4997493;28;20219;-84
2024/02/14 00:52:17;;;;;;;3.10;2.10;;;;;;;;;;4979001;28;20319;-86
2024/02/14 00:54:42;;;;;;;6.23;2.27;;;;;;;;;;4978811;28;20224;-85
2024/02/14 00:57:08;;;;;;;4.73;2.30;;;;;;;;;;4970907;28;20232;-86
2024/02/14 00:59:33;;;;;;;3.27;2.57;;;;;;;;;;4984448;28;20858;-85
2024/02/14 01:01:59;;;;;;;2.93;2.30;;;;;;;;;;4981974;28;20311;-85
2024/02/14 01:04:25;;;;;;;3.40;2.30;;;;;;;;;;4985282;28;20221;-84
2024/02/14 01:06:51;;;;;;;2.97;2.40;;;;;;;;;;4983637;28;20258;-84
2024/02/14 01:09:20;;;;;;;3.40;2.67;;;;;;;;;;5014169;28;20291;-85
2024/02/14 01:11:49;;;;;;;2.30;2.10;;;;;;;;;;4996750;28;21014;-83
2024/02/14 01:14:14;;;;;;;4.03;2.30;;;;;;;;;;4979147;28;20224;-85
2024/02/14 01:16:44;;;;;;;5.13;2.93;;;;;;;;;;4983769;28;20240;-85
2024/02/14 01:19:10;;;;;;;3.07;2.47;;;;;;;;;;4981610;28;20246;-85
2024/02/14 01:21:38;;;;;;;3.93;2.73;;;;;;;;;;4966704;28;20767;-85
2024/02/14 01:24:08;;;;;;;5.97;2.60;;;;;;;;;;4982150;28;20228;-84
2024/02/14 01:26:34;;;;;;;4.13;2.50;;;;;;;;;;4962479;28;21750;-82
2024/02/14 01:29:00;;;;;;;2.67;2.27;;;;;;;;;;4988657;28;20303;-84
2024/02/14 01:31:26;;;;;;;2.50;2.30;;;;;;;;;;4985734;28;20638;-85
2024/02/14 01:33:55;;;;;;;3.20;2.47;;;;;;;;;;4995843;28;20213;-84
2024/02/14 01:36:22;;;;;;;2.60;2.27;;;;;;;;;;4982311;28;20228;-82
2024/02/14 01:38:48;;;;;;;4.30;2.70;;;;;;;;;;4977442;28;20216;-83
2024/02/14 01:41:14;;;;;;;3.17;2.67;;;;;;;;;;4978333;28;20310;-83
2024/02/14 01:43:42;;;;;;;3.00;2.23;;;;;;;;;;4980876;28;20266;-85
2024/02/14 01:46:07;;;;;;;4.00;2.20;;;;;;;;;;4981509;28;20251;-83
2024/02/14 01:48:36;;;;;;;2.97;2.30;;;;;;;;;;4982597;28;20221;-85
2024/02/14 01:51:02;;;;;;;4.23;2.87;;;;;;;;;;4978995;28;20275;-84
2024/02/14 01:53:30;;;;;;;3.90;2.70;;;;;;;;;;4972698;28;20223;-83
2024/02/14 01:55:56;;;;;;;2.97;2.67;;;;;;;;;;4983346;28;20216;-84
2024/02/14 01:58:22;;;;;;;3.80;2.70;;;;;;;;;;4981675;28;20216;-85
2024/02/14 02:00:47;;;;;;;3.07;2.47;;;;;;;;;;4978592;28;20302;-85
2024/02/14 02:03:14;;;;;;;3.70;2.50;;;;;;;;;;4980559;28;20791;-83
2024/02/14 02:05:41;;;;;;;2.97;2.53;;;;;;;;;;4976438;28;20278;-84
2024/02/14 02:08:10;;;;;;;4.20;2.90;;;;;;;;;;4982695;28;20850;-85
2024/02/14 02:10:38;;;;;;;3.97;2.70;;;;;;;;;;4969212;28;20220;-84
2024/02/14 02:13:03;;;;;;;3.63;2.77;;;;;;;;;;4963166;28;20220;-84
2024/02/14 02:15:30;;;;;;;3.43;2.90;;;;;;;;;;4983727;28;20694;-83
2024/02/14 02:17:56;;;;;;;5.13;2.70;;;;;;;;;;4964388;28;20220;-85
2024/02/14 02:20:21;;;;;;;4.50;2.63;;;;;;;;;;4966608;28;20219;-84
2024/02/14 02:22:52;;;;;;;3.13;2.57;;;;;;;;;;4983647;28;20225;-83
2024/02/14 02:25:23;;;;;;;3.07;2.43;;;;;;;;;;4999056;28;20235;-83
2024/02/14 02:27:49;;;;;;;4.53;2.80;;;;;;;;;;4987915;28;20242;-84
2024/02/14 02:30:17;;;;;;;4.27;2.60;;;;;;;;;;4966471;28;20605;-84
2024/02/14 02:32:43;;;;;;;3.30;2.37;;;;;;;;;;4997668;28;20240;-83
2024/02/14 02:35:09;;;;;;;3.70;2.60;;;;;;;;;;4977270;28;20697;-83
2024/02/14 02:37:40;;;;;;;3.50;2.77;;;;;;;;;;4981617;28;20232;-84
2024/02/14 02:40:07;;;;;;;4.20;2.80;;;;;;;;;;4995964;28;20231;-83
2024/02/14 02:42:32;;;;;;;4.03;2.93;;;;;;;;;;4983511;28;20224;-84
2024/02/14 02:45:02;;;;;;;4.53;2.80;;;;;;;;;;4983284;28;20221;-82
2024/02/14 02:47:29;;;;;;;4.13;2.70;;;;;;;;;;4977408;28;20678;-84
2024/02/14 02:49:56;;;;;;;4.93;3.10;;;;;;;;;;4987805;28;20230;-83
2024/02/14 02:52:22;;;;;;;4.00;3.33;;;;;;;;;;4995786;28;20260;-84
2024/02/14 02:54:47;;;;;;;4.50;2.93;;;;;;;;;;4975883;28;20217;-83
2024/02/14 02:57:13;;;;;;;6.63;3.43;;;;;;;;;;4980479;28;20270;-84
2024/02/14 02:59:42;;;;;;;4.87;3.10;;;;;;;;;;4985963;28;20715;-83
2024/02/14 03:02:11;;;;;;;3.40;3.07;;;;;;;;;;4996928;28;20716;-83
2024/02/14 03:04:38;;;;;;;4.67;3.40;;;;;;;;;;4983773;28;20228;-84
2024/02/14 03:07:06;;;;;;;5.77;3.70;;;;;;;;;;4980380;28;20312;-82
2024/02/14 03:09:37;;;;;;;6.07;3.80;;;;;;;;;;4972274;28;20271;-84
2024/02/14 03:12:03;;;;;;;3.77;3.27;;;;;;;;;;5001224;28;20763;-84
2024/02/14 03:14:32;;;;;;;5.30;3.57;;;;;;;;;;4986394;28;20225;-85
2024/02/14 03:17:01;;;;;;;4.73;3.13;;;;;;;;;;4995652;28;20288;-83
2024/02/14 03:19:29;;;;;;;4.53;3.83;;;;;;;;;;4981273;28;20637;-83
2024/02/14 03:21:55;;;;;;;4.20;3.80;;;;;;;;;;4981813;28;20579;-84
2024/02/14 03:24:21;;;;;;;4.33;4.00;;;;;;;;;;4984166;28;20270;-82
2024/02/14 03:26:46;;;;;;;5.97;3.83;;;;;;;;;;4996418;28;20282;-85
2024/02/14 03:29:12;;;;;;;6.17;3.67;;;;;;;;;;4994262;28;20227;-81
2024/02/14 03:31:37;;;;;;;5.47;4.00;;;;;;;;;;4961872;28;20223;-84
2024/02/14 03:34:03;;;;;;;7.40;4.33;;;;;;;;;;4982376;28;20220;-83
2024/02/14 03:36:30;;;;;;;5.97;4.50;;;;;;;;;;4995818;28;20236;-84
2024/02/14 03:38:59;;;;;;;6.67;4.33;;;;;;;;;;4975088;28;20223;-82
2024/02/14 03:41:24;;;;;;;7.43;4.17;;;;;;;;;;4985694;28;20806;-82
2024/02/14 03:43:50;;;;;;;5.33;4.77;;;;;;;;;;4993026;28;20224;-84
2024/02/14 03:46:16;;;;;;;6.77;4.70;;;;;;;;;;4974365;28;20332;-82
2024/02/14 03:48:43;;;;;;;5.60;4.17;;;;;;;;;;4976051;28;20794;-82
2024/02/14 03:51:12;;;;;;;5.10;4.60;;;;;;;;;;4986383;28;20224;-82
2024/02/14 03:53:38;;;;;;;6.40;4.70;;;;;;;;;;4986458;28;20934;-84
2024/02/14 03:56:04;;;;;;;5.70;4.73;;;;;;;;;;4957926;28;20224;-84
2024/02/14 04:02:16;;;;;;;7.70;5.13;;;;;;;;;;5020938;28;20239;-83
2024/02/14 04:04:46;;;;;;;6.70;5.03;;;;;;;;;;4992692;28;20310;-82
2024/02/14 04:07:12;;;;;;;11.70;5.53;;;;;;;;;;4962369;28;20220;-83
2024/02/14 04:09:37;;;;;;;7.53;5.80;;;;;;;;;;4975881;28;20831;-84
2024/02/14 04:12:03;;;;;;;9.20;6.10;;;;;;;;;;4978424;28;20216;-82
2024/02/14 04:14:28;;;;;;;7.23;6.40;;;;;;;;;;4994048;28;20985;-83
2024/02/14 04:16:54;;;;;;;10.63;6.90;;;;;;;;;;4972407;28;20231;-83
2024/02/14 04:19:22;;;;;;;8.27;6.40;;;;;;;;;;4975808;28;20225;-84
2024/02/14 04:21:48;;;;;;;7.53;6.70;;;;;;;;;;4980285;28;20244;-83
2024/02/14 04:24:14;;;;;;;7.43;6.63;;;;;;;;;;4977559;28;20220;-85
2024/02/14 04:26:41;;;;;;;9.07;6.90;;;;;;;;;;4978377;28;20221;-83
2024/02/14 04:29:10;;;;;;;9.70;7.60;;;;;;;;;;5006157;28;20993;-85
2024/02/14 04:31:38;;;;;;;9.97;7.30;;;;;;;;;;4991608;28;20304;-83
2024/02/14 04:34:05;;;;;;;10.13;8.13;;;;;;;;;;4965258;28;20246;-83
2024/02/14 04:36:30;;;;;;;10.63;7.80;;;;;;;;;;4980904;28;20224;-81
2024/02/14 04:38:59;;;;;;;9.00;7.83;;;;;;;;;;4981649;28;20228;-83
2024/02/14 04:41:24;;;;;;;9.87;8.30;;;;;;;;;;4981532;28;20250;-83
2024/02/14 04:43:52;;;;;;;11.50;8.70;;;;;;;;;;4964663;28;20277;-83
2024/02/14 04:46:18;;;;;;;10.53;7.80;;;;;;;;;;4965951;28;20220;-82
2024/02/14 04:48:43;;;;;;;10.27;8.00;;;;;;;;;;4996484;28;20224;-84
2024/02/14 04:51:09;;;;;;;8.90;8.00;;;;;;;;;;4981372;28;20220;-84
2024/02/14 04:53:37;;;;;;;11.47;8.77;;;;;;;;;;4984288;28;20244;-82
2024/02/14 04:56:07;;;;;;;9.00;7.80;;;;;;;;;;4964984;28;20274;-83
2024/02/14 04:58:33;;;;;;;11.00;8.40;;;;;;;;;;4994427;28;20226;-84
2024/02/14 05:00:58;;;;;;;9.77;8.53;;;;;;;;;;4979402;28;20606;-82
2024/02/14 05:03:25;;;;;;;9.87;8.50;;;;;;;;;;4993394;28;20216;-81
2024/02/14 05:05:51;;;;;;;9.07;8.10;;;;;;;;;;4957705;28;20224;-82
2024/02/14 05:08:16;;;;;;;9.87;8.60;;;;;;;;;;4982102;28;20242;-83
2024/02/14 05:10:42;;;;;;;10.97;8.40;;;;;;;;;;4976643;28;20220;-83
2024/02/14 05:13:11;;;;;;;10.73;7.93;;;;;;;;;;4975471;28;20274;-83
2024/02/14 05:15:36;;;;;;;10.30;7.77;;;;;;;;;;4979914;28;20220;-83
2024/02/14 05:18:06;;;;;;;12.77;8.40;;;;;;;;;;4996582;28;20221;-82
2024/02/14 05:20:31;;;;;;;11.23;7.63;;;;;;;;;;4980818;28;20263;-83
2024/02/14 05:22:57;;;;;;;9.20;7.60;;;;;;;;;;4962466;28;20212;-81
2024/02/14 05:25:23;;;;;;;9.70;7.83;;;;;;;;;;4972002;28;20266;-82
2024/02/14 05:27:48;;;;;;;10.50;8.23;;;;;;;;;;4979699;28;20228;-83
2024/02/14 05:30:14;;;;;;;9.83;8.80;;;;;;;;;;4977222;28;20216;-81
2024/02/14 05:32:40;;;;;;;11.30;8.70;;;;;;;;;;5013062;28;20222;-84
2024/02/14 05:35:05;;;;;;;10.30;8.90;;;;;;;;;;4980595;28;20907;-80
2024/02/14 05:37:31;;;;;;;9.17;8.23;;;;;;;;;;4957943;28;20341;-84
2024/02/14 05:40:06;;;;;;;12.40;9.40;;;;;;;;;;5005500;28;20232;-83
2024/02/14 05:42:32;;;;;;;12.07;9.43;;;;;;;;;;4989671;28;20679;-82
2024/02/14 05:44:57;;;;;;;11.47;8.53;;;;;;;;;;4985134;28;20284;-83
2024/02/14 05:47:25;;;;;;;10.37;8.83;;;;;;;;;;4968955;28;20223;-79
2024/02/14 05:49:50;;;;;;;12.60;9.03;;;;;;;;;;4985431;28;20283;-82
2024/02/14 05:52:16;;;;;;;13.07;9.57;;;;;;;;;;4988212;28;20228;-82
2024/02/14 05:54:42;;;;;;;11.07;8.90;;;;;;;;;;4971734;28;20228;-84
2024/02/14 05:57:10;;;;;;;10.93;9.33;;;;;;;;;;4996054;28;20229;-83
2024/02/14 05:59:35;;;;;;;12.20;9.13;;;;;;;;;;4992236;28;20219;-83
2024/02/14 06:02:03;;;;;;;11.73;9.43;;;;;;;;;;4990853;28;20235;-82
2024/02/14 06:04:30;;;;;;;11.17;9.23;;;;;;;;;;4970977;28;20221;-83
2024/02/14 06:07:05;;;;;;;10.93;8.70;;;;;;;;;;4977182;28;20244;-84
2024/02/14 06:09:30;;;;;;;13.37;8.53;;;;;;;;;;4963143;28;20755;-81
2024/02/14 06:11:56;;;;;;;10.37;8.27;;;;;;;;;;5008858;28;20228;-83
2024/02/14 06:14:21;;;;;;;10.97;8.07;;;;;;;;;;5017812;28;20220;-83
2024/02/14 06:16:47;;;;;;;10.90;8.83;;;;;;;;;;4981129;28;20229;-82
2024/02/14 06:19:13;;;;;;;12.93;9.30;;;;;;;;;;5000771;28;20703;-83
2024/02/14 06:21:38;;;;;;;14.30;10.97;;;;;;;;;;4993852;28;20232;-83
2024/02/14 06:24:04;;;;;;;11.20;8.47;;;;;;;;;;4962917;28;20224;-82
2024/02/14 06:26:31;;;;;;;11.17;9.70;;;;;;;;;;4979773;28;20228;-80
2024/02/14 06:28:56;;;;;;;10.07;7.63;;;;;;;;;;4983623;28;20764;-82
2024/02/14 06:31:22;;;;;;;9.40;8.13;;;;;;;;;;4959803;28;20304;-81
2024/02/14 06:33:50;;;;;;;8.07;7.27;;;;;;;;;;4977489;28;20216;-83
2024/02/14 06:36:18;;;;;;;17.20;14.13;;;;;;;;;;4975172;28;20286;-84
2024/02/14 06:38:46;;;;;;;9.97;7.70;;;;;;;;;;4998570;28;20265;-83
2024/02/14 06:41:14;;;;;;;8.20;6.97;;;;;;;;;;4996484;28;20255;-84
2024/02/14 06:43:40;;;;;;;8.87;7.30;;;;;;;;;;4999266;28;20243;-83
2024/02/14 06:46:07;;;;;;;9.80;7.07;;;;;;;;;;4981962;28;20223;-83
2024/02/14 06:48:33;;;;;;;9.27;7.57;;;;;;;;;;4993509;28;20231;-83
2024/02/14 06:51:01;;;;;;;8.90;7.10;;;;;;;;;;4991037;28;20909;-83
2024/02/14 06:53:30;;;;;;;10.67;7.77;;;;;;;;;;4986210;28;20646;-82
2024/02/14 06:55:56;;;;;;;8.70;7.80;;;;;;;;;;4959880;28;20771;-82
2024/02/14 06:58:21;;;;;;;8.40;7.40;;;;;;;;;;4982032;28;20228;-82
2024/02/14 07:00:47;;;;;;;9.80;8.20;;;;;;;;;;5015262;28;20282;-80
2024/02/14 07:03:12;;;;;;;11.27;8.60;;;;;;;;;;5011280;28;20224;-81
2024/02/14 07:05:41;;;;;;;10.80;8.93;;;;;;;;;;4980454;28;20231;-80
2024/02/14 07:08:09;;;;;;;9.57;8.57;;;;;;;;;;4970671;28;20232;-81
2024/02/14 07:10:37;;;;;;;10.60;8.50;;;;;;;;;;4984655;28;20712;-82
2024/02/14 07:13:04;;;;;;;10.03;8.50;;;;;;;;;;4981789;28;20227;-83
2024/02/14 07:15:34;;;;;;;12.60;8.60;;;;;;;;;;4978226;28;21186;-82
2024/02/14 07:18:00;;;;;;;13.03;8.30;;;;;;;;;;5006236;28;20221;-81
2024/02/14 07:20:28;;;;;;;11.17;8.30;;;;;;;;;;4999733;28;20251;-82
2024/02/14 07:22:56;;;;;;;10.90;8.53;;;;;;;;;;4976128;28;20535;-82
2024/02/14 07:25:22;;;;;;;10.57;8.00;;;;;;;;;;4997117;28;20618;-82
2024/02/14 07:27:49;;;;;;;9.73;8.70;;;;;;;;;;4980467;28;20235;-82
2024/02/14 07:30:18;;;;;;;12.07;9.93;;;;;;;;;;4968546;28;20293;-84
2024/02/14 07:32:46;;;;;;;9.97;8.77;;;;;;;;;;4966179;28;20574;-78
2024/02/14 07:35:14;;;;;;;10.80;9.43;;;;;;;;;;4997626;28;20291;-79
2024/02/14 07:37:42;;;;;;;10.93;9.03;;;;;;;;;;4982807;28;20247;-83
2024/02/14 07:40:08;;;;;;;10.53;9.40;;;;;;;;;;4981426;28;20259;-83
2024/02/14 07:42:35;;;;;;;11.83;9.07;;;;;;;;;;4987212;28;20239;-81
2024/02/14 07:45:03;;;;;;;9.33;8.33;;;;;;;;;;4983895;28;20224;-86
2024/02/14 07:47:29;;;;;;;10.93;8.43;;;;;;;;;;4975944;28;20996;-85
2024/02/14 07:49:57;;;;;;;10.87;9.40;;;;;;;;;;4983000;28;20314;-83
2024/02/14 07:52:22;;;;;;;10.73;8.80;;;;;;;;;;4989902;28;20640;-85
2024/02/14 07:54:54;;;;;;;10.53;8.77;;;;;;;;;;4999315;28;20303;-83
2024/02/14 07:57:22;;;;;;;11.03;9.93;;;;;;;;;;4977464;28;20248;-85
2024/02/14 07:59:47;;;;;;;10.50;9.40;;;;;;;;;;4980481;28;20284;-84
2024/02/14 08:02:16;;;;;;;10.10;8.67;;;;;;;;;;4985287;28;20600;-79
2024/02/14 08:04:41;;;;;;;10.00;8.83;;;;;;;;;;4983835;28;20220;-80
2024/02/14 08:07:07;;;;;;;10.00;8.83;;;;;;;;;;4981286;28;20258;-78
2024/02/14 08:09:34;;;;;;;10.17;8.50;;;;;;;;;;4978758;28;20225;-79
2024/02/14 08:12:00;;;;;;;9.73;8.73;;;;;;;;;;4964215;28;20228;-79
2024/02/14 08:14:26;;;;;;;8.63;7.70;;;;;;;;;;4973965;28;20595;-80
2024/02/14 08:16:52;;;;;;;10.03;9.03;;;;;;;;;;4986008;28;20852;-84
2024/02/14 08:19:18;;;;;;;9.90;8.83;;;;;;;;;;4994694;28;20220;-82
2024/02/14 08:21:46;;;;;;;10.53;9.07;;;;;;;;;;4985613;28;20311;-83
2024/02/14 08:24:12;;;;;;;10.20;9.20;;;;;;;;;;4982236;28;20296;-81
2024/02/14 08:26:39;;;;;;;10.20;9.20;;;;;;;;;;4974741;28;20285;-83
2024/02/14 08:29:09;;;;;;;10.70;9.57;;;;;;;;;;4977555;28;20228;-85
2024/02/14 08:31:37;;;;;;;11.07;9.97;;;;;;;;;;4970569;28;20231;-85
2024/02/14 08:34:03;;;;;;;12.00;10.40;;;;;;;;;;4962975;28;20228;-83
2024/02/14 08:36:29;;;;;;;10.33;9.20;;;;;;;;;;4971143;28;20228;-83
2024/02/14 08:38:56;;;;;;;10.23;9.33;;;;;;;;;;5000074;28;21073;-82
2024/02/14 08:41:23;;;;;;;12.60;10.50;;;;;;;;;;5009310;28;20228;-82
2024/02/14 08:43:49;;;;;;;11.97;10.77;;;;;;;;;;4999293;28;20224;-82
2024/02/14 08:46:15;;;;;;;11.30;10.20;;;;;;;;;;4969818;28;20359;-83
2024/02/14 08:48:48;;;;;;;12.27;11.07;;;;;;;;;;4969891;28;20227;-83
2024/02/14 08:51:16;;;;;;;11.13;9.97;;;;;;;;;;4980892;28;20225;-81
2024/02/14 08:53:44;;;;;;;11.97;10.27;;;;;;;;;;4983312;28;20694;-82
2024/02/14 08:56:10;;;;;;;10.03;9.03;;;;;;;;;;4977578;28;20223;-80
2024/02/14 08:58:38;;;;;;;10.30;9.27;;;;;;;;;;4964146;28;20213;-81
2024/02/14 09:01:04;;;;;;;9.50;8.60;;;;;;;;;;5016800;28;20232;-81
2024/02/14 09:03:31;;;;;;;11.57;9.80;;;;;;;;;;4985999;28;20228;-83
2024/02/14 09:05:57;;;;;;;11.07;9.00;;;;;;;;;;4997643;28;20228;-82
2024/02/14 09:08:23;;;;;;;9.07;8.17;;;;;;;;;;4988875;28;20230;-81
2024/02/14 09:10:53;;;;;;;10.93;9.90;;;;;;;;;;4997693;28;20372;-81
2024/02/14 09:13:19;;;;;;;9.90;9.00;;;;;;;;;;5013167;28;20311;-81
2024/02/14 09:15:45;;;;;;;10.17;9.17;;;;;;;;;;5019464;28;20568;-83
2024/02/14 09:18:10;;;;;;;9.80;8.80;;;;;;;;;;4993993;28;20224;-83
2024/02/14 09:20:38;;;;;;;10.30;9.30;;;;;;;;;;4981941;28;20879;-84
2024/02/14 09:23:06;;;;;;;10.87;9.73;;;;;;;;;;4967311;28;20234;-85
2024/02/14 09:25:34;;;;;;;10.50;9.43;;;;;;;;;;4972682;28;20347;-87
2024/02/14 09:28:04;;;;;;;10.83;9.70;;;;;;;;;;4986016;28;20308;-84
2024/02/14 09:30:33;;;;;;;11.67;10.20;;;;;;;;;;5003009;28;20224;-86
2024/02/14 09:32:58;;;;;;;11.07;9.93;;;;;;;;;;4982145;28;20307;-84
2024/02/14 09:35:25;;;;;;;11.73;10.57;;;;;;;;;;4987662;28;20229;-86
2024/02/14 09:37:51;;;;;;;11.90;10.70;;;;;;;;;;5000093;28;20306;-86
2024/02/14 09:40:18;;;;;;;11.77;10.63;;;;;;;;;;4965073;28;20234;-85
2024/02/14 09:42:47;;;;;;;11.53;10.33;;;;;;;;;;4986621;28;20223;-84
2024/02/14 09:45:16;;;;;;;10.77;9.77;;;;;;;;;;4963847;28;20224;-83
2024/02/14 09:47:41;;;;;;;10.83;9.57;;;;;;;;;;4968656;28;20224;-84
2024/02/14 09:50:11;;;;;;;11.13;10.03;;;;;;;;;;4978506;28;20208;-82
2024/02/14 09:52:39;;;;;;;11.43;10.33;;;;;;;;;;4986295;28;20233;-83
2024/02/14 09:55:06;;;;;;;11.90;10.70;;;;;;;;;;4983478;28;20764;-86
2024/02/14 09:57:37;;;;;;;11.43;10.37;;;;;;;;;;4986565;28;20258;-86
2024/02/14 10:00:02;;;;;;;12.70;11.50;;;;;;;;;;4961299;28;20226;-83
2024/02/14 10:02:34;;;;;;;12.13;10.93;;;;;;;;;;4998768;28;20283;-84
2024/02/14 10:05:00;;;;;;;12.57;10.63;;;;;;;;;;4986209;28;20232;-85
2024/02/14 10:07:28;;;;;;;11.53;10.33;;;;;;;;;;4994941;28;20225;-85
2024/02/14 10:09:54;;;;;;;12.07;10.87;;;;;;;;;;4988485;28;20240;-87
2024/02/14 10:12:20;;;;;;;12.50;11.23;;;;;;;;;;4977340;28;20224;-84
2024/02/14 10:14:45;;;;;;;11.60;10.50;;;;;;;;;;5009516;28;20566;-83
2024/02/14 10:17:19;;;;;;;11.23;10.10;;;;;;;;;;5000520;28;20224;-83
2024/02/14 10:19:58;;;;;;;12.43;11.13;;;;;;;;;;4999622;28;20223;-83
2024/02/14 10:22:26;;;;;;;11.37;10.23;;;;;;;;;;4972904;28;20236;-84
2024/02/14 10:24:52;;;;;;;12.50;11.20;;;;;;;;;;4977474;28;20236;-84
2024/02/14 10:27:18;;;;;;;15.30;11.70;;;;;;;;;;5006846;28;20228;-83
2024/02/14 10:29:44;;;;;;;15.10;13.50;;;;;;;;;;4984844;28;20216;-84
2024/02/14 10:32:17;;;;;;;14.67;13.17;;;;;;;;;;5003491;28;20217;-83
2024/02/14 10:34:46;;;;;;;16.13;14.30;;;;;;;;;;5015702;28;20233;-84
2024/02/14 10:37:11;;;;;;;17.23;15.30;;;;;;;;;;4980697;28;20227;-84
2024/02/14 10:39:38;;;;;;;18.40;16.47;;;;;;;;;;4972012;28;20227;-84
2024/02/14 10:42:08;;;;;;;19.90;16.20;;;;;;;;;;4974215;28;20814;-84
2024/02/14 10:44:34;;;;;;;19.27;17.27;;;;;;;;;;4990369;28;20255;-86
2024/02/14 10:47:00;;;;;;;19.70;17.60;;;;;;;;;;4967575;28;20229;-84
2024/02/14 10:49:27;;;;;;;20.03;17.90;;;;;;;;;;4975196;28;20288;-84
2024/02/14 10:52:04;;;;;;;21.50;18.47;;;;;;;;;;4993667;28;20220;-83
2024/02/14 10:54:30;;;;;;;22.20;18.80;;;;;;;;;;4988149;28;20227;-83
2024/02/14 10:56:56;;;;;;;20.07;18.00;;;;;;;;;;4997110;28;20231;-82
2024/02/14 10:59:24;;;;;;;21.33;18.43;;;;;;;;;;4995157;28;20225;-83
2024/02/14 11:01:50;;;;;;;21.57;18.73;;;;;;;;;;4983506;28;20241;-86
2024/02/14 11:04:16;;;;;;;21.00;18.80;;;;;;;;;;4971970;28;20246;-83
2024/02/14 11:06:48;;;;;;;22.37;20.00;;;;;;;;;;4970979;28;20240;-83
2024/02/14 11:09:17;;;;;;;22.97;20.30;;;;;;;;;;4987065;28;20858;-85
2024/02/14 11:11:46;;;;;;;22.50;19.47;;;;;;;;;;4986170;28;20216;-86
2024/02/14 11:14:15;;;;;;;24.23;20.70;;;;;;;;;;4982022;28;20231;-83
2024/02/14 11:16:48;;;;;;;21.40;19.10;;;;;;;;;;4984871;28;20249;-84
2024/02/14 11:19:16;;;;;;;24.03;19.77;;;;;;;;;;4990674;28;20219;-84
2024/02/14 11:21:51;;;;;;;21.20;18.67;;;;;;;;;;4989072;28;20291;-83
2024/02/14 11:24:17;;;;;;;21.90;19.07;;;;;;;;;;4985796;28;20220;-85
2024/02/14 11:26:51;;;;;;;20.60;18.43;;;;;;;;;;4979460;28;20232;-81
2024/02/14 11:29:20;;;;;;;20.53;18.43;;;;;;;;;;5003227;28;20220;-82
2024/02/14 11:31:50;;;;;;;21.00;18.80;;;;;;;;;;4985879;28;20226;-86
2024/02/14 11:34:16;;;;;;;20.77;18.57;;;;;;;;;;4980237;28;20227;-86
2024/02/14 11:36:44;;;;;;;20.40;17.87;;;;;;;;;;4970676;28;20225;-83
2024/02/14 11:39:12;;;;;;;19.73;17.63;;;;;;;;;;4984203;28;20255;-83
2024/02/14 11:41:38;;;;;;;19.17;17.17;;;;;;;;;;4962505;28;20231;-84
2024/02/14 11:44:11;;;;;;;18.00;16.20;;;;;;;;;;4999278;28;20547;-85
2024/02/14 11:46:37;;;;;;;18.70;16.77;;;;;;;;;;4981844;28;20223;-84
2024/02/14 11:49:05;;;;;;;18.57;16.67;;;;;;;;;;4992033;28;20228;-85
2024/02/14 11:51:35;;;;;;;18.60;16.60;;;;;;;;;;4969289;28;20232;-83
2024/02/14 11:54:09;;;;;;;19.13;17.13;;;;;;;;;;4971082;28;20204;-85
2024/02/14 11:56:40;;;;;;;18.47;16.63;;;;;;;;;;4978564;28;20703;-82
2024/02/14 11:59:07;;;;;;;18.93;17.03;;;;;;;;;;4986530;28;20216;-82
2024/02/14 12:01:37;;;;;;;18.83;16.97;;;;;;;;;;5004938;28;20231;-86
2024/02/14 12:04:10;;;;;;;19.30;17.30;;;;;;;;;;5002321;28;20252;-85
2024/02/14 12:06:43;;;;;;;19.03;17.13;;;;;;;;;;4978677;28;20232;-85
2024/02/14 12:09:09;;;;;;;28.30;17.90;;;;;;;;;;4979139;28;20219;-85
2024/02/14 12:11:38;;;;;;;18.67;16.67;;;;;;;;;;5000574;28;20229;-83
2024/02/14 12:14:10;;;;;;;18.20;16.33;;;;;;;;;;4984180;28;20235;-84
2024/02/14 12:16:36;;;;;;;18.97;17.07;;;;;;;;;;4980476;28;20232;-86
2024/02/14 12:19:18;;;;;;;19.93;17.77;;;;;;;;;;4996968;28;20237;-84
2024/02/14 12:21:48;;;;;;;19.10;17.13;;;;;;;;;;4988014;28;20247;-83
2024/02/14 12:24:17;;;;;;;18.07;16.20;;;;;;;;;;4980348;28;20234;-84
2024/02/14 12:26:43;;;;;;;19.53;17.37;;;;;;;;;;4984314;28;20634;-82
2024/02/14 12:29:10;;;;;;;19.10;17.10;;;;;;;;;;4972245;28;20224;-82
2024/02/14 12:31:36;;;;;;;20.10;17.40;;;;;;;;;;4985214;28;20258;-84
2024/02/14 12:34:07;;;;;;;18.97;17.07;;;;;;;;;;4988684;28;20227;-83
2024/02/14 12:36:38;;;;;;;20.17;18.07;;;;;;;;;;4980066;28;20284;-80
2024/02/14 12:39:04;;;;;;;20.17;18.03;;;;;;;;;;4984221;28;20588;-84
2024/02/14 12:41:32;;;;;;;20.23;18.20;;;;;;;;;;4978959;28;20252;-84
2024/02/14 12:44:00;;;;;;;20.27;18.17;;;;;;;;;;4986319;28;20224;-81
2024/02/14 12:46:29;;;;;;;19.70;17.60;;;;;;;;;;4986536;28;20313;-82
2024/02/14 12:48:54;;;;;;;19.67;17.83;;;;;;;;;;4977701;28;20250;-82
2024/02/14 12:51:28;;;;;;;20.43;18.33;;;;;;;;;;5024663;28;20231;-82
2024/02/14 12:53:56;;;;;;;19.93;17.83;;;;;;;;;;5006238;28;20231;-82
2024/02/14 12:56:26;;;;;;;20.20;18.10;;;;;;;;;;4993107;28;20231;-81
2024/02/14 12:58:57;;;;;;;23.53;21.13;;;;;;;;;;4975127;28;20739;-81
2024/02/14 13:01:25;;;;;;;20.03;18.13;;;;;;;;;;5005972;28;20244;-86
2024/02/14 13:03:50;;;;;;;21.30;19.07;;;;;;;;;;4990225;28;20213;-82
2024/02/14 13:06:16;;;;;;;21.63;19.63;;;;;;;;;;4986943;28;20239;-83
2024/02/14 13:08:41;;;;;;;20.43;18.43;;;;;;;;;;4993303;28;20284;-86
2024/02/14 13:11:10;;;;;;;22.00;19.90;;;;;;;;;;4973264;28;20228;-85
2024/02/14 13:13:36;;;;;;;21.67;19.47;;;;;;;;;;4977110;28;20224;-86
2024/02/14 13:16:06;;;;;;;20.60;18.60;;;;;;;;;;4983121;28;20230;-83
2024/02/14 13:18:34;;;;;;;19.67;17.77;;;;;;;;;;4988752;28;20228;-85
2024/02/14 13:21:02;;;;;;;19.70;17.70;;;;;;;;;;4990625;28;20240;-85
2024/02/14 13:23:33;;;;;;;19.00;17.20;;;;;;;;;;4975574;28;20246;-84
2024/02/14 13:26:03;;;;;;;19.27;17.47;;;;;;;;;;4989981;28;20236;-85
2024/02/14 13:28:29;;;;;;;18.57;16.67;;;;;;;;;;4982344;28;20599;-81
2024/02/14 13:30:55;;;;;;;17.83;16.13;;;;;;;;;;5003453;28;20216;-84
2024/02/14 13:33:22;;;;;;;17.77;16.07;;;;;;;;;;4995641;28;20228;-85
2024/02/14 13:35:48;;;;;;;17.10;15.57;;;;;;;;;;4977677;28;20212;-84
2024/02/14 13:38:19;;;;;;;16.87;15.33;;;;;;;;;;4997697;28;20243;-82
2024/02/14 13:40:47;;;;;;;17.10;15.50;;;;;;;;;;4962247;28;20279;-85
2024/02/14 13:43:13;;;;;;;17.33;15.63;;;;;;;;;;4982362;28;20224;-84
2024/02/14 13:45:45;;;;;;;17.80;16.07;;;;;;;;;;4973259;28;20232;-83
2024/02/14 13:48:13;;;;;;;16.60;15.00;;;;;;;;;;4984002;28;20262;-84
2024/02/14 13:50:39;;;;;;;18.10;16.33;;;;;;;;;;4960067;28;20220;-85
2024/02/14 13:53:06;;;;;;;17.40;15.70;;;;;;;;;;4997039;28;20224;-84
2024/02/14 13:55:31;;;;;;;17.60;15.90;;;;;;;;;;4969282;28;20227;-84
2024/02/14 13:57:57;;;;;;;18.03;16.33;;;;;;;;;;4998750;28;20236;-87
2024/02/14 14:00:25;;;;;;;18.00;16.30;;;;;;;;;;4986086;28;20626;-85
2024/02/14 14:02:53;;;;;;;19.23;17.43;;;;;;;;;;4981912;28;20225;-84
2024/02/14 14:05:20;;;;;;;18.53;16.93;;;;;;;;;;4983783;28;20216;-82
2024/02/14 14:07:48;;;;;;;19.00;17.30;;;;;;;;;;4987657;28;20462;-84
2024/02/14 14:10:14;;;;;;;18.53;16.83;;;;;;;;;;4985326;28;20204;-85
2024/02/14 14:12:42;;;;;;;19.90;18.10;;;;;;;;;;5002853;28;21045;-85
2024/02/14 14:15:12;;;;;;;18.47;16.87;;;;;;;;;;4992857;28;20228;-84
2024/02/14 14:17:40;;;;;;;18.00;16.40;;;;;;;;;;4991465;28;20239;-86
2024/02/14 14:20:08;;;;;;;18.60;16.90;;;;;;;;;;4973106;28;20221;-86
2024/02/14 14:23:03;;;;;;;18.37;16.77;;;;;;;;;;4989112;28;20228;-84
2024/02/14 14:25:30;;;;;;;17.07;15.47;;;;;;;;;;5017981;28;20223;-87
2024/02/14 14:27:58;;;;;;;17.67;16.07;;;;;;;;;;5017596;28;20224;-84
2024/02/14 14:30:24;;;;;;;18.33;16.67;;;;;;;;;;5018639;28;20223;-83
2024/02/14 14:32:49;;;;;;;17.03;15.63;;;;;;;;;;5000573;28;20220;-86
2024/02/14 14:35:17;;;;;;;17.00;15.50;;;;;;;;;;4985611;28;20282;-84